createdAt,value
2022-08-30T00:01:49.102Z,99690.59
2022-08-30T00:06:53.301Z,99688.31
2022-08-30T00:11:56.044Z,99690.31
2022-08-30T00:16:58.726Z,99688.25
2022-08-30T00:22:02.763Z,99684.69
2022-08-30T00:27:06.173Z,99687.91
2022-08-30T00:32:09.061Z,99690.25
2022-08-30T00:37:13.195Z,99696.16
2022-08-30T00:42:17.493Z,99696.00
2022-08-30T00:47:20.583Z,99697.50
2022-08-30T00:52:24.901Z,99699.16
2022-08-30T00:57:27.610Z,99689.22
2022-08-30T01:02:33.279Z,99698.97
2022-08-30T01:07:38.034Z,99701.66
2022-08-30T01:12:41.270Z,99699.22
2022-08-30T01:17:45.262Z,99704.78
2022-08-30T01:23:04.647Z,99692.31
2022-08-30T01:28:11.209Z,99694.19
2022-08-30T01:33:14.159Z,99692.09
2022-08-30T01:38:19.186Z,99697.38
2022-08-30T01:43:21.949Z,99696.53
2022-08-30T01:48:26.528Z,99701.91
2022-08-30T01:53:35.209Z,99703.03
2022-08-30T01:58:38.997Z,99712.75
2022-08-30T02:03:43.008Z,99714.19
2022-08-30T02:08:47.398Z,99700.53
2022-08-30T02:13:50.653Z,99698.44
2022-08-30T02:18:54.399Z,99704.66
2022-08-30T02:23:58.637Z,99703.22
2022-08-30T02:29:01.331Z,99708.81
2022-08-30T02:34:04.346Z,99695.84
2022-08-30T02:39:08.969Z,99686.25
2022-08-30T02:44:12.539Z,99693.88
2022-08-30T02:49:33.646Z,99699.31
2022-08-30T02:54:40.299Z,99692.69
2022-08-30T02:59:45.240Z,99693.94
2022-08-30T03:04:48.902Z,99693.53
2022-08-30T03:09:53.118Z,99686.44
2022-08-30T03:14:56.339Z,99692.31
2022-08-30T03:20:00.276Z,99693.94
2022-08-30T03:25:05.654Z,99695.06
2022-08-30T03:30:09.909Z,99696.25
2022-08-30T03:35:13.897Z,99688.16
2022-08-30T03:40:20.147Z,99683.41
2022-08-30T03:45:22.948Z,99687.38
2022-08-30T03:50:25.808Z,99682.03
2022-08-30T03:55:30.478Z,99677.44
2022-08-30T04:00:33.358Z,99680.91
2022-08-30T04:05:36.063Z,99678.88
2022-08-30T04:10:40.214Z,99681.38
2022-08-30T04:15:43.210Z,99677.50
2022-08-30T04:20:46.584Z,99680.38
2022-08-30T04:25:50.690Z,99685.94
2022-08-30T04:30:53.582Z,99690.09
2022-08-30T04:35:56.241Z,99691.16
2022-08-30T04:41:00.497Z,99691.59
2022-08-30T04:46:06.943Z,99693.66
2022-08-30T04:51:12.786Z,99699.88
2022-08-30T04:56:18.400Z,99710.25
2022-08-30T05:01:23.831Z,99709.81
2022-08-30T05:06:29.210Z,99718.53
2022-08-30T05:11:33.340Z,99723.09
2022-08-30T05:16:36.449Z,99731.34
2022-08-30T05:21:40.666Z,99725.97
2022-08-30T05:26:45.442Z,99730.75
2022-08-30T05:31:48.215Z,99740.91
2022-08-30T05:36:51.029Z,99752.06
2022-08-30T05:41:58.338Z,99745.47
2022-08-30T05:47:01.588Z,99742.97
2022-08-30T05:52:05.249Z,99741.09
2022-08-30T05:57:09.367Z,99740.72
2022-08-30T06:02:12.241Z,99731.78
2022-08-30T06:07:16.475Z,99733.63
2022-08-30T06:12:22.113Z,99730.50
2022-08-30T06:17:24.780Z,99732.94
2022-08-30T06:22:27.660Z,99738.75
2022-08-30T06:27:32.012Z,99742.03
2022-08-30T06:32:34.766Z,99739.91
2022-08-30T06:37:37.567Z,99738.16
2022-08-30T06:42:41.613Z,99738.09
2022-08-30T06:47:44.848Z,99734.75
2022-08-30T06:52:47.835Z,99731.19
2022-08-30T06:57:52.334Z,99729.31
2022-08-30T07:02:55.108Z,99721.91
2022-08-30T07:07:57.846Z,99724.97
2022-08-30T07:13:01.923Z,99735.50
2022-08-30T07:18:22.078Z,99724.59
2022-08-30T07:23:24.794Z,99736.03
2022-08-30T07:28:28.954Z,99731.44
2022-08-30T07:33:31.747Z,99733.63
2022-08-30T07:38:34.823Z,99742.94
2022-08-30T07:43:39.070Z,99745.63
2022-08-30T07:48:41.827Z,99741.13
2022-08-30T07:53:47.403Z,99740.78
2022-08-30T07:58:52.005Z,99748.94
2022-08-30T08:03:54.746Z,99751.16
2022-08-30T08:09:02.064Z,99746.00
2022-08-30T08:14:06.234Z,99748.38
2022-08-30T08:19:09.308Z,99748.38
2022-08-30T08:24:12.168Z,99749.06
2022-08-30T08:29:16.542Z,99745.72
2022-08-30T08:34:23.251Z,99754.94
2022-08-30T08:39:25.925Z,99755.91
2022-08-30T08:44:41.830Z,99755.25
2022-08-30T08:49:47.664Z,99750.94
2022-08-30T08:54:54.428Z,99757.66
2022-08-30T08:59:59.518Z,99751.66
2022-08-30T09:05:03.138Z,99756.69
2022-08-30T09:10:07.247Z,99743.34
2022-08-30T09:15:17.849Z,99741.56
2022-08-30T09:20:29.353Z,99737.63
2022-08-30T09:25:33.374Z,99744.69
2022-08-30T09:30:39.965Z,99731.47
2022-08-30T09:35:46.469Z,99733.34
2022-08-30T09:40:50.830Z,99740.47
2022-08-30T09:46:10.299Z,99742.28
2022-08-30T09:51:43.949Z,99735.06
2022-08-30T09:56:54.396Z,99737.69
2022-08-30T10:02:05.586Z,99731.44
2022-08-30T10:07:13.226Z,99735.84
2022-08-30T10:12:22.019Z,99733.94
2022-08-30T10:22:43.636Z,99721.72
2022-08-30T10:27:54.809Z,99722.31
2022-08-30T10:33:04.757Z,99728.47
2022-08-30T10:38:12.854Z,99726.84
2022-08-30T10:43:24.084Z,99728.47
2022-08-30T10:48:32.061Z,99726.00
2022-08-30T10:53:40.507Z,99726.84
2022-08-30T10:58:44.249Z,99722.63
2022-08-30T11:09:13.121Z,99726.97
2022-08-30T11:14:19.046Z,99715.56
2022-08-30T11:19:27.116Z,99730.91
2022-08-30T11:25:02.804Z,99723.13
2022-08-30T11:30:49.476Z,99725.03
2022-08-30T11:35:54.385Z,99726.19
2022-08-30T11:41:09.599Z,99719.75
2022-08-30T11:46:19.047Z,99719.28
2022-08-30T11:52:08.408Z,99712.81
2022-08-30T11:57:19.566Z,99709.06
2022-08-30T12:02:52.207Z,99708.63
2022-08-30T12:08:01.741Z,99700.50
2022-08-30T12:13:04.979Z,99698.53
2022-08-30T12:18:28.722Z,99684.41
2022-08-30T12:23:44.388Z,99683.94
2022-08-30T12:28:49.740Z,99690.16
2022-08-30T12:33:55.552Z,99695.97
2022-08-30T12:39:16.496Z,99686.16
2022-08-30T12:44:21.541Z,99676.31
2022-08-30T12:49:26.090Z,99686.09
2022-08-30T12:54:31.151Z,99673.38
2022-08-30T12:59:54.008Z,99674.19
2022-08-30T13:04:58.507Z,99671.28
2022-08-30T13:10:07.642Z,99659.16
2022-08-30T13:15:17.177Z,99660.78
2022-08-30T13:20:26.266Z,99655.72
2022-08-30T13:25:30.925Z,99653.63
2022-08-30T13:30:36.377Z,99648.22
2022-08-30T13:35:39.453Z,99646.91
2022-08-30T13:40:44.385Z,99637.75
2022-08-30T13:45:47.219Z,99631.63
2022-08-30T13:50:50.014Z,99639.31
2022-08-30T13:55:54.084Z,99637.63
2022-08-30T14:00:57.057Z,99632.22
2022-08-30T14:06:29.229Z,99638.84
2022-08-30T14:11:24.147Z,99625.28
2022-08-30T14:16:27.802Z,99622.59
2022-08-30T14:21:30.968Z,99620.44
2022-08-30T14:26:37.574Z,99614.59
2022-08-30T14:31:41.337Z,99624.34
2022-08-30T14:36:45.677Z,99618.50
2022-08-30T14:41:51.934Z,99606.63
2022-08-30T14:46:55.324Z,99602.63
2022-08-30T14:51:58.749Z,99607.56
2022-08-30T14:57:02.909Z,99601.31
2022-08-30T15:02:06.489Z,99600.25
2022-08-30T15:07:13.549Z,99597.06
2022-08-30T15:12:17.909Z,99590.34
2022-08-30T15:17:20.872Z,99587.03
2022-08-30T15:22:23.548Z,99577.75
2022-08-30T15:27:27.588Z,99576.59
2022-08-30T15:32:31.968Z,99573.41
2022-08-30T15:37:34.960Z,99572.09
2022-08-30T15:42:38.968Z,99571.84
2022-08-30T15:47:42.019Z,99561.59
2022-08-30T15:52:44.984Z,99561.84
2022-08-30T15:57:49.042Z,99563.25
2022-08-30T16:02:53.085Z,99540.28
2022-08-30T16:07:55.822Z,99542.75
2022-08-30T16:13:01.573Z,99541.22
2022-08-30T16:18:05.741Z,99539.81
2022-08-30T16:23:08.557Z,99533.44
2022-08-30T16:28:12.549Z,99538.50
2022-08-30T16:33:15.236Z,99540.97
2022-08-30T16:38:18.530Z,99535.91
2022-08-30T16:43:23.917Z,99540.50
2022-08-30T16:48:26.683Z,99551.69
2022-08-30T16:53:30.232Z,99541.66
2022-08-30T16:58:34.335Z,99544.25
2022-08-30T17:03:37.433Z,99547.66
2022-08-30T17:08:41.697Z,99546.84
2022-08-30T17:13:45.760Z,99534.00
2022-08-30T17:18:48.470Z,99534.13
2022-08-30T17:23:51.506Z,99548.97
2022-08-30T17:28:55.577Z,99551.47
2022-08-30T17:34:03.555Z,99551.19
2022-08-30T17:39:11.065Z,99558.03
2022-08-30T17:44:16.148Z,99567.78
2022-08-30T17:49:19.112Z,99565.94
2022-08-30T17:54:22.054Z,99580.31
2022-08-30T17:59:29.298Z,99589.84
2022-08-30T18:04:35.595Z,99590.44
2022-08-30T18:09:38.414Z,99595.25
2022-08-30T18:14:42.554Z,99587.72
2022-08-30T18:19:45.808Z,99594.19
2022-08-30T18:24:49.502Z,99602.19
2022-08-30T18:29:53.547Z,99613.41
2022-08-30T18:34:56.248Z,99609.28
2022-08-30T18:40:01.090Z,99616.47
2022-08-30T18:45:11.509Z,99626.13
2022-08-30T18:50:17.884Z,99625.78
2022-08-30T18:55:22.855Z,99630.50
2022-08-30T19:00:26.979Z,99637.44
2022-08-30T19:05:29.799Z,99631.09
2022-08-30T19:10:33.679Z,99622.97
2022-08-30T19:15:37.998Z,99628.38
2022-08-30T19:20:40.889Z,99627.31
2022-08-30T19:25:44.301Z,99630.38
2022-08-30T19:30:48.974Z,99629.91
2022-08-30T19:35:51.884Z,99633.81
2022-08-30T19:40:58.866Z,99630.16
2022-08-30T19:46:04.644Z,99633.91
2022-08-30T19:51:20.724Z,99641.69
2022-08-30T19:56:36.313Z,99633.22
2022-08-30T20:01:43.736Z,99640.63
2022-08-30T20:06:50.930Z,99636.16
2022-08-30T20:11:55.205Z,99627.91
2022-08-30T20:17:02.372Z,99630.38
2022-08-30T20:22:08.337Z,99632.97
2022-08-30T20:27:11.461Z,99635.78
2022-08-30T20:32:15.505Z,99632.28
2022-08-30T20:37:19.213Z,99638.41
2022-08-30T20:42:21.954Z,99641.47
2022-08-30T20:47:26.259Z,99644.19
2022-08-30T20:52:29.047Z,99637.72
2022-08-30T20:57:31.744Z,99639.81
2022-08-30T21:02:35.806Z,99635.81
2022-08-30T21:07:41.005Z,99633.31
2022-08-30T21:12:44.052Z,99628.50
2022-08-30T21:17:48.274Z,99632.16
2022-08-30T21:22:50.964Z,99636.66
2022-08-30T21:27:54.779Z,99639.56
2022-08-30T21:32:59.869Z,99641.34
2022-08-30T21:38:04.282Z,99635.69
2022-08-30T21:43:07.535Z,99650.88
2022-08-30T21:48:12.827Z,99639.94
2022-08-30T21:53:17.276Z,99652.91
2022-08-30T21:58:20.110Z,99661.84
2022-08-30T22:03:24.218Z,99650.88
2022-08-30T22:08:27.956Z,99656.44
2022-08-30T22:13:30.650Z,99658.19
2022-08-30T22:18:35.257Z,99659.97
2022-08-30T22:23:38.451Z,99663.13
2022-08-30T22:28:41.600Z,99668.56
2022-08-30T22:33:46.987Z,99660.31
2022-08-30T22:38:51.303Z,99666.19
2022-08-30T22:43:54.798Z,99673.38
2022-08-30T22:48:58.844Z,99671.91
2022-08-30T22:54:02.301Z,99658.63
2022-08-30T22:59:05.837Z,99656.72
2022-08-30T23:04:11.252Z,99655.28
2022-08-30T23:09:13.951Z,99656.47
2022-08-30T23:14:16.688Z,99659.28
2022-08-30T23:19:20.776Z,99660.84
2022-08-30T23:24:40.961Z,99659.19
2022-08-30T23:30:06.212Z,99666.47
2022-08-30T23:35:30.624Z,99668.03
2022-08-30T23:40:50.785Z,99668.03
2022-08-30T23:46:11.479Z,99667.41
2022-08-30T23:51:40.860Z,99669.59
2022-08-30T23:57:01.369Z,99674.00
